createdAt,value
2017-07-25T00:00:23.240Z,4.47
2017-07-25T00:05:26.459Z,3.80
2017-07-25T00:10:29.669Z,4.80
2017-07-25T00:15:32.845Z,4.33
2017-07-25T00:20:36.025Z,7.27
2017-07-25T00:25:39.201Z,6.50
2017-07-25T00:30:42.396Z,9.13
2017-07-25T00:35:45.571Z,7.73
2017-07-25T00:40:48.749Z,8.13
2017-07-25T00:45:51.937Z,10.43
2017-07-25T00:50:55.144Z,8.90
2017-07-25T00:55:58.320Z,5.17
2017-07-25T01:01:01.495Z,5.43
2017-07-25T01:06:05.444Z,7.50
2017-07-25T01:11:08.644Z,4.37
2017-07-25T01:16:11.805Z,4.67
2017-07-25T01:21:14.994Z,4.10
2017-07-25T01:26:18.185Z,4.17
2017-07-25T01:31:21.361Z,4.50
2017-07-25T01:36:30.540Z,4.23
2017-07-25T01:41:33.717Z,4.30
2017-07-25T01:46:36.914Z,5.30
2017-07-25T01:51:40.840Z,10.30
2017-07-25T01:56:44.021Z,10.23
2017-07-25T02:01:47.189Z,11.30
2017-07-25T02:06:50.373Z,10.73
2017-07-25T02:11:53.541Z,8.57
2017-07-25T02:16:57.530Z,8.60
2017-07-25T02:22:00.685Z,7.80
2017-07-25T02:27:04.642Z,8.20
2017-07-25T02:32:07.837Z,7.63
2017-07-25T02:37:10.982Z,9.23
2017-07-25T02:42:14.190Z,10.07
2017-07-25T02:47:17.385Z,9.60
2017-07-25T02:52:20.581Z,7.67
2017-07-25T02:57:23.780Z,10.17
2017-07-25T03:02:27.221Z,9.80
2017-07-25T03:07:30.413Z,9.50
2017-07-25T03:12:33.601Z,14.33
2017-07-25T03:17:36.809Z,12.27
2017-07-25T03:22:39.965Z,13.90
2017-07-25T03:27:43.171Z,12.90
2017-07-25T03:32:46.343Z,13.77
2017-07-25T03:37:49.537Z,16.60
2017-07-25T03:42:52.717Z,14.60
2017-07-25T03:47:56.661Z,16.57
2017-07-25T03:52:59.881Z,13.50
2017-07-25T03:58:03.081Z,14.87
2017-07-25T04:03:06.271Z,13.90
2017-07-25T04:08:09.641Z,16.67
2017-07-25T04:13:12.910Z,13.40
2017-07-25T04:18:16.116Z,13.83
2017-07-25T04:23:19.431Z,15.20
2017-07-25T04:28:22.642Z,17.33
2017-07-25T04:33:25.812Z,12.97
2017-07-25T04:38:29.758Z,15.43
2017-07-25T04:43:32.938Z,17.27
2017-07-25T04:48:36.881Z,17.33
2017-07-25T04:53:40.076Z,15.07
2017-07-25T04:58:44.028Z,14.00
2017-07-25T05:03:47.227Z,15.97
2017-07-25T05:08:50.428Z,15.83
2017-07-25T05:13:53.617Z,15.93
2017-07-25T05:18:57.566Z,18.03
2017-07-25T05:24:00.743Z,25.43
2017-07-25T05:29:04.747Z,19.40
2017-07-25T05:34:07.939Z,21.50
2017-07-25T05:39:11.118Z,17.40
2017-07-25T05:44:14.298Z,19.07
2017-07-25T05:49:17.483Z,18.27
2017-07-25T05:54:21.552Z,19.60
2017-07-25T05:59:24.758Z,17.50
2017-07-25T06:04:28.108Z,14.83
2017-07-25T06:09:31.333Z,15.13
2017-07-25T06:14:34.525Z,12.37
2017-07-25T06:19:37.694Z,11.33
2017-07-25T06:24:40.890Z,10.30
2017-07-25T06:29:44.060Z,9.13
2017-07-25T06:34:48.002Z,10.17
2017-07-25T06:39:51.933Z,8.50
2017-07-25T06:44:55.115Z,11.77
2017-07-25T06:49:58.281Z,9.33
2017-07-25T06:55:01.531Z,9.03
2017-07-25T07:00:04.713Z,9.30
2017-07-25T07:05:07.918Z,7.90
2017-07-25T07:10:11.117Z,7.60
2017-07-25T07:15:14.318Z,9.20
2017-07-25T07:20:17.490Z,9.53
2017-07-25T07:25:20.648Z,12.87
2017-07-25T07:30:23.896Z,14.43
2017-07-25T07:35:27.093Z,15.33
2017-07-25T07:40:31.059Z,13.70
2017-07-25T07:45:34.287Z,13.90
2017-07-25T07:50:37.490Z,12.70
2017-07-25T07:55:40.663Z,12.20
2017-07-25T08:00:43.863Z,16.30
2017-07-25T08:05:47.073Z,14.20
2017-07-25T08:10:50.246Z,17.93
2017-07-25T08:15:54.196Z,15.00
2017-07-25T08:20:57.381Z,14.40
2017-07-25T08:26:01.361Z,16.60
2017-07-25T08:31:04.537Z,16.90
2017-07-25T08:36:07.739Z,17.60
2017-07-25T08:41:10.917Z,19.47
2017-07-25T08:46:14.893Z,19.47
2017-07-25T08:51:18.098Z,16.63
2017-07-25T08:56:21.310Z,17.83
2017-07-25T09:01:24.483Z,19.90
2017-07-25T09:06:28.437Z,17.73
2017-07-25T09:11:31.619Z,15.70
2017-07-25T09:16:34.799Z,14.60
2017-07-25T09:21:37.961Z,13.33
2017-07-25T09:26:41.154Z,11.90
2017-07-25T09:31:44.401Z,7.70
2017-07-25T09:36:47.605Z,7.77
2017-07-25T09:41:50.778Z,9.70
2017-07-25T09:46:54.121Z,7.83
2017-07-25T09:51:57.302Z,7.07
2017-07-25T09:57:00.557Z,6.77
2017-07-25T10:02:04.506Z,7.00
2017-07-25T10:07:07.712Z,8.10
2017-07-25T10:12:11.648Z,9.63
2017-07-25T10:17:14.834Z,33.70
2017-07-25T10:22:18.005Z,13.77
2017-07-25T10:27:21.224Z,10.00
2017-07-25T10:32:24.496Z,7.83
2017-07-25T10:37:27.688Z,8.00
2017-07-25T10:42:31.430Z,9.00
2017-07-25T10:47:34.645Z,18.83
2017-07-25T10:52:37.857Z,22.17
2017-07-25T10:57:41.033Z,7.10
2017-07-25T11:02:44.214Z,6.43
2017-07-25T11:07:47.386Z,5.40
2017-07-25T11:12:50.590Z,16.07
2017-07-25T11:17:53.766Z,5.90
2017-07-25T11:22:56.964Z,6.53
2017-07-25T11:28:00.160Z,5.93
2017-07-25T11:33:03.330Z,7.73
2017-07-25T11:38:07.290Z,18.70
2017-07-25T11:43:10.498Z,5.70
2017-07-25T11:48:13.849Z,9.77
2017-07-25T11:53:17.037Z,6.03
2017-07-25T11:58:20.258Z,6.43
2017-07-25T12:03:23.471Z,11.03
2017-07-25T12:08:26.628Z,7.00
2017-07-25T12:13:29.837Z,7.57
2017-07-25T12:18:33.043Z,10.50
2017-07-25T12:23:36.252Z,12.47
2017-07-25T12:28:39.435Z,10.20
2017-07-25T12:33:43.415Z,8.10
2017-07-25T12:38:46.649Z,9.40
2017-07-25T12:43:49.877Z,10.93
2017-07-25T12:48:53.866Z,11.80
2017-07-25T12:53:57.056Z,20.27
2017-07-25T12:59:00.243Z,16.40
2017-07-25T13:04:03.410Z,16.67
2017-07-25T13:09:07.379Z,10.37
2017-07-25T13:14:10.565Z,14.03
2017-07-25T13:19:13.757Z,12.10
2017-07-25T13:24:17.721Z,11.13
2017-07-25T13:29:20.913Z,10.70
2017-07-25T13:34:24.098Z,11.30
2017-07-25T13:39:28.043Z,12.37
2017-07-25T13:44:31.278Z,17.17
2017-07-25T13:49:34.489Z,16.53
2017-07-25T13:54:37.695Z,18.37
2017-07-25T13:59:40.908Z,17.73
2017-07-25T14:04:44.226Z,15.77
2017-07-25T14:09:47.429Z,18.20
2017-07-25T14:14:50.632Z,13.70
2017-07-25T14:19:53.841Z,15.23
2017-07-25T14:24:57.041Z,15.40
2017-07-25T14:30:00.250Z,20.97
2017-07-25T14:35:03.445Z,21.10
2017-07-25T14:40:06.641Z,17.10
2017-07-25T14:45:09.825Z,17.70
2017-07-25T14:50:13.040Z,12.80
2017-07-25T14:55:16.191Z,10.40
2017-07-25T15:00:19.344Z,10.40
2017-07-25T15:05:22.550Z,15.80
2017-07-25T15:10:25.726Z,8.37
2017-07-25T15:15:28.883Z,9.67
2017-07-25T15:20:32.087Z,9.80
2017-07-25T15:25:35.256Z,6.27
2017-07-25T15:30:39.221Z,10.00
2017-07-25T15:35:42.411Z,5.73
2017-07-25T15:40:45.585Z,6.97
2017-07-25T15:45:48.790Z,7.30
2017-07-25T15:50:52.010Z,8.53
2017-07-25T15:55:55.969Z,8.97
2017-07-25T16:00:59.128Z,6.50
2017-07-25T16:06:03.106Z,7.90
2017-07-25T16:11:06.296Z,10.10
2017-07-25T16:16:09.513Z,6.60
2017-07-25T16:21:12.781Z,7.67
2017-07-25T16:26:16.744Z,8.10
2017-07-25T16:31:19.892Z,6.80
2017-07-25T16:36:23.055Z,6.20
2017-07-25T16:41:26.231Z,5.93
2017-07-25T16:46:30.213Z,6.23
2017-07-25T16:51:33.394Z,6.40
2017-07-25T16:56:36.606Z,7.07
2017-07-25T17:01:39.785Z,7.37
2017-07-25T17:06:43.793Z,5.90
2017-07-25T17:11:47.915Z,6.40
2017-07-25T17:16:51.982Z,5.93
2017-07-25T17:21:55.185Z,7.50
2017-07-25T17:26:59.118Z,11.70
2017-07-25T17:32:02.406Z,6.33
2017-07-25T17:37:05.622Z,6.60
2017-07-25T17:42:08.874Z,5.80
2017-07-25T17:47:12.068Z,6.27
2017-07-25T17:52:15.299Z,6.57
2017-07-25T17:57:18.479Z,6.00
2017-07-25T18:02:21.753Z,5.63
2017-07-25T18:07:25.903Z,6.50
2017-07-25T18:12:29.126Z,6.67
2017-07-25T18:17:32.351Z,7.80
2017-07-25T18:22:35.536Z,6.17
2017-07-25T18:27:38.758Z,9.50
2017-07-25T18:32:41.931Z,11.10
2017-07-25T18:37:45.114Z,6.23
2017-07-25T18:42:49.064Z,6.60
2017-07-25T18:47:52.287Z,7.20
2017-07-25T18:52:55.458Z,6.70
2017-07-25T18:57:59.467Z,11.60
2017-07-25T19:03:02.691Z,5.97
2017-07-25T19:08:06.658Z,6.33
2017-07-25T19:13:09.886Z,6.63
2017-07-25T19:18:13.104Z,5.47
2017-07-25T19:23:16.323Z,7.57
2017-07-25T19:28:20.259Z,6.40
2017-07-25T19:33:24.204Z,8.83
2017-07-25T19:38:27.399Z,6.33
2017-07-25T19:43:31.361Z,6.20
2017-07-25T19:48:34.826Z,6.67
2017-07-25T19:53:38.789Z,8.03
2017-07-25T19:58:42.010Z,11.10
2017-07-25T20:03:45.184Z,5.17
2017-07-25T20:08:48.392Z,5.30
2017-07-25T20:13:51.551Z,7.07
2017-07-25T20:18:54.771Z,7.57
2017-07-25T20:23:57.983Z,8.03
2017-07-25T20:29:01.212Z,6.93
2017-07-25T20:34:05.191Z,5.43
2017-07-25T20:39:08.392Z,6.47
2017-07-25T20:44:11.581Z,5.33
2017-07-25T20:49:14.802Z,4.43
2017-07-25T20:54:18.023Z,4.23
2017-07-25T20:59:21.217Z,4.00
2017-07-25T21:04:24.418Z,5.20
2017-07-25T21:09:27.623Z,3.80
2017-07-25T21:14:30.847Z,3.00
2017-07-25T21:19:34.070Z,3.47
2017-07-25T21:24:37.277Z,2.90
2017-07-25T21:29:40.470Z,3.50
2017-07-25T21:34:43.675Z,4.87
2017-07-25T21:39:46.864Z,2.00
2017-07-25T21:44:50.063Z,1.93
2017-07-25T21:49:53.281Z,2.47
2017-07-25T21:54:56.472Z,1.70
2017-07-25T21:59:59.824Z,1.47
2017-07-25T22:05:03.021Z,1.70
2017-07-25T22:10:06.237Z,2.20
2017-07-25T22:15:09.405Z,2.23
2017-07-25T22:20:12.590Z,3.20
2017-07-25T22:25:15.756Z,2.70
2017-07-25T22:30:18.926Z,3.07
2017-07-25T22:35:22.139Z,2.97
2017-07-25T22:40:25.321Z,3.30
2017-07-25T22:45:28.517Z,2.80
2017-07-25T22:50:31.694Z,2.47
2017-07-25T22:55:34.865Z,5.50
2017-07-25T23:00:38.054Z,2.47
2017-07-25T23:05:41.233Z,2.60
2017-07-25T23:10:45.191Z,2.67
2017-07-25T23:15:48.421Z,2.53
2017-07-25T23:20:51.601Z,4.07
2017-07-25T23:25:54.812Z,2.77
2017-07-25T23:30:58.019Z,2.93
2017-07-25T23:36:01.218Z,2.97
2017-07-25T23:41:04.433Z,2.57
2017-07-25T23:46:07.613Z,7.10
2017-07-25T23:51:10.817Z,2.93
2017-07-25T23:56:14.774Z,2.30
